Historique des mesures à Cassis (13260), France
Quotidien Résumé Fevrier 12, 2017 Unités:  Métrique    US   Métrique/US
« Précédent (Jour)
Suivant (Jour) »
Quotidien Hebdomadaire Mensuel Annuel Période au choix
  Maximum: Minimum: Moyenne:
Température: TemperatureC °C 11.6 °C 12.9 °C
Point de rosée: DewpointC °C 5.7 °C 6.9 °C
Humidité: Humidity % 62 % 64 %
Vitesse du vent: 0 km/h 0 km/h 11.3 km/h
Rafales: 0 km/h - -
Vent:- - ESE
Pression: PressurehPa hPa 1014.4 hPa -
Précipitations: 0.0 mm    
Historical Graphs
 
 
Mesures pour : Fevrier 12, 2017
Heure Temperature Point de rosée Pression Vent Vitesse du vent Rafales Humidité Pluie (par heure) Conditions
TemperatureC °C DewpointC °C PressurehPa hPa Calm     Humidity % HourlyPrecipMM mm SoftwareType W/m2
00:11 11.6 °C 5.7 °C 1015.1 hPa ESE 2.9 km/h 11.6 km/h 67 % 0.0 mm open2300-1.11 W/m2
01:10 11.6 °C 5.9 °C 1015.1 hPa SSE 5.1 km/h 12.2 km/h 68 % 0.0 mm open2300-1.11 W/m2
02:11 11.8 °C 5.8 °C 1014.8 hPa East 14.5 km/h 14.5 km/h 67 % 0.0 mm open2300-1.11 W/m2
03:10 11.8 °C 6.1 °C 1014.4 hPa ESE 2.3 km/h 17.9 km/h 68 % 0.0 mm open2300-1.11 W/m2
04:11 11.9 °C 6.2 °C 1014.8 hPa SSE 9.8 km/h 11.6 km/h 68 % 0.0 mm open2300-1.11 W/m2
05:10 11.9 °C 6.2 °C 1015.1 hPa ENE 17.4 km/h 17.4 km/h 68 % 0.0 mm open2300-1.11 W/m2
06:11 11.9 °C 6.2 °C 1015.5 hPa SSE 12.2 km/h 14 km/h 68 % 0.0 mm open2300-1.11 W/m2
07:10 11.9 °C 6.2 °C 1015.5 hPa ENE 10.9 km/h 19.6 km/h 68 % 0.0 mm open2300-1.11 W/m2
08:11 12.0 °C 6.3 °C 1015.5 hPa Calm   6.4 km/h 68 % 0.0 mm open2300-1.11 W/m2
09:10 13.2 °C 7.2 °C 1015.8 hPa Calm   15.6 km/h 67 % 0.0 mm open2300-1.11 W/m2
10:11 13.6 °C 7.3 °C 1016.1 hPa SSE 7.6 km/h 10.9 km/h 66 % 0.0 mm open2300-1.11 W/m2
11:10 14.5 °C 7.9 °C 1016.1 hPa Calm   8.9 km/h 65 % 0.0 mm open2300-1.11 W/m2
12:11 15.4 °C 8.4 °C 1016.5 hPa ESE 10.3 km/h 26.7 km/h 63 % 0.0 mm open2300-1.11 W/m2
13:10 15.5 °C 8.3 °C 1015.8 hPa ESE 20.9 km/h 27.2 km/h 62 % 0.0 mm open2300-1.11 W/m2
14:11 15.4 °C 8.4 °C 1015.5 hPa ESE 17.9 km/h 19.2 km/h 63 % 0.0 mm open2300-1.11 W/m2
15:10 15.4 °C 8.4 °C 1015.8 hPa ESE 13.2 km/h 19.6 km/h 63 % 0.0 mm open2300-1.11 W/m2
16:11 14.8 °C 8.3 °C 1015.5 hPa SE 9.8 km/h 10.3 km/h 65 % 0.0 mm open2300-1.11 W/m2
17:10 14.3 °C 8.2 °C 1015.8 hPa ESE 9.3 km/h 9.3 km/h 67 % 0.0 mm open2300-1.11 W/m2
18:11 13.9 °C 7.8 °C 1015.8 hPa East 11.6 km/h 11.6 km/h 67 % 0.0 mm open2300-1.11 W/m2
19:10 13.8 °C 7.9 °C 1016.1 hPa ESE 8 km/h 8 km/h 68 % 0.0 mm open2300-1.11 W/m2
20:11 13.8 °C 7.8 °C 1016.5 hPa ESE 23 km/h 24.3 km/h 67 % 0.0 mm open2300-1.11 W/m2
21:10 13.8 °C 7.5 °C 1016.5 hPa SSE 39.4 km/h 39.4 km/h 66 % 0.0 mm open2300-1.11 W/m2
22:11 13.9 °C 7.4 °C 1016.1 hPa South 15 km/h 15 km/h 65 % 0.0 mm open2300-1.11 W/m2
23:10 13.9 °C 7.2 °C 1016.5 hPa SE 18.7 km/h 18.7 km/h 64 % 0.0 mm open2300-1.11 W/m2
Observations météo à CASSIS
WU-History script by Weather Underground - 1 mb